createdAt,value
2022-09-25T00:01:15.016Z,98.23
2022-09-25T00:03:47.556Z,98.39
2022-09-25T00:06:16.484Z,98.34
2022-09-25T00:08:44.316Z,98.50
2022-09-25T00:11:18.498Z,98.40
2022-09-25T00:13:46.852Z,98.39
2022-09-25T00:16:17.212Z,98.34
2022-09-25T00:19:03.453Z,98.26
2022-09-25T00:21:32.295Z,98.48
2022-09-25T00:24:04.900Z,98.46
2022-09-25T00:26:35.480Z,98.54
2022-09-25T00:29:04.641Z,98.56
2022-09-25T00:31:32.490Z,98.52
2022-09-25T00:34:02.290Z,98.77
2022-09-25T00:36:29.762Z,98.80
2022-09-25T00:38:57.831Z,98.73
2022-09-25T00:41:27.035Z,98.99
2022-09-25T00:43:56.949Z,98.91
2022-09-25T00:46:44.081Z,98.88
2022-09-25T00:49:19.705Z,98.97
2022-09-25T00:51:55.145Z,98.95
2022-09-25T00:54:24.999Z,98.92
2022-09-25T00:56:54.795Z,99.16
2022-09-25T00:59:28.384Z,99.09
2022-09-25T01:01:56.346Z,99.13
2022-09-25T01:04:24.015Z,99.21
2022-09-25T01:06:50.851Z,99.11
2022-09-25T01:09:18.729Z,99.21
2022-09-25T01:11:45.897Z,99.11
2022-09-25T01:14:17.019Z,99.05
2022-09-25T01:17:19.077Z,99.19
2022-09-25T01:19:58.102Z,99.28
2022-09-25T01:22:33.749Z,99.13
2022-09-25T01:25:36.738Z,99.37
2022-09-25T01:28:11.186Z,99.39
2022-09-25T01:30:44.206Z,99.35
2022-09-25T01:33:18.359Z,99.39
2022-09-25T01:36:00.727Z,99.47
2022-09-25T01:38:45.323Z,99.52
2022-09-25T01:41:23.942Z,99.48
2022-09-25T01:44:05.997Z,99.60
2022-09-25T01:46:39.374Z,99.68
2022-09-25T01:49:17.234Z,99.76
2022-09-25T01:51:52.471Z,99.89
2022-09-25T01:54:29.457Z,99.88
2022-09-25T01:57:09.037Z,99.90
2022-09-25T01:59:43.726Z,99.98
2022-09-25T02:02:18.764Z,99.96
2022-09-25T02:04:56.688Z,99.99
2022-09-25T02:07:31.398Z,99.93
2022-09-25T02:10:07.769Z,100.00
2022-09-25T02:12:40.398Z,100.00
2022-09-25T02:15:25.436Z,100.00
2022-09-25T02:18:44.355Z,99.98
2022-09-25T02:21:14.081Z,100.00
2022-09-25T02:24:01.185Z,100.00
2022-09-25T02:26:30.366Z,100.00
2022-09-25T02:28:58.779Z,99.99
2022-09-25T02:31:53.350Z,100.00
2022-09-25T02:34:21.878Z,99.98
2022-09-25T02:36:49.731Z,100.00
2022-09-25T02:39:34.107Z,100.00
2022-09-25T02:42:09.738Z,99.97
2022-09-25T02:44:46.369Z,100.00
2022-09-25T02:47:20.791Z,99.98
2022-09-25T02:49:56.855Z,100.00
2022-09-25T02:52:42.430Z,100.00
2022-09-25T02:55:19.717Z,100.00
2022-09-25T02:57:55.469Z,100.00
2022-09-25T03:00:23.334Z,100.00
2022-09-25T03:02:59.078Z,100.00
2022-09-25T03:05:27.069Z,100.00
2022-09-25T03:08:13.089Z,100.00
2022-09-25T03:10:41.568Z,100.00
2022-09-25T03:13:15.409Z,100.00
2022-09-25T03:15:45.894Z,100.00
2022-09-25T03:18:14.341Z,100.00
2022-09-25T03:20:41.386Z,100.00
2022-09-25T03:23:08.128Z,100.00
2022-09-25T03:25:34.869Z,100.00
2022-09-25T03:28:02.667Z,100.00
2022-09-25T03:30:29.651Z,100.00
2022-09-25T03:32:56.518Z,100.00
2022-09-25T03:35:23.259Z,100.00
2022-09-25T03:37:50.266Z,100.00
2022-09-25T03:40:17.026Z,100.00
2022-09-25T03:42:43.784Z,100.00
2022-09-25T03:45:11.137Z,100.00
2022-09-25T03:47:38.083Z,100.00
2022-09-25T03:50:07.998Z,100.00
2022-09-25T03:52:34.899Z,100.00
2022-09-25T03:55:01.995Z,100.00
2022-09-25T03:57:29.547Z,100.00
2022-09-25T04:00:00.715Z,100.00
2022-09-25T04:02:28.698Z,100.00
2022-09-25T04:04:56.119Z,100.00
2022-09-25T04:07:24.701Z,100.00
2022-09-25T04:09:51.334Z,100.00
2022-09-25T04:12:18.077Z,100.00
2022-09-25T04:14:45.536Z,100.00
2022-09-25T04:17:12.580Z,100.00
2022-09-25T04:19:39.323Z,100.00
2022-09-25T04:22:06.059Z,100.00
2022-09-25T04:24:48.772Z,100.00
2022-09-25T04:27:21.736Z,100.00
2022-09-25T04:29:49.115Z,100.00
2022-09-25T04:32:35.629Z,100.00
2022-09-25T04:35:03.075Z,100.00
2022-09-25T04:37:30.150Z,100.00
2022-09-25T04:39:57.925Z,100.00
2022-09-25T04:42:25.545Z,100.00
2022-09-25T04:44:53.818Z,100.00
2022-09-25T04:47:22.111Z,100.00
2022-09-25T04:49:49.449Z,100.00
2022-09-25T04:52:18.215Z,100.00
2022-09-25T04:54:46.320Z,100.00
2022-09-25T04:57:38.794Z,100.00
2022-09-25T05:00:06.427Z,100.00
2022-09-25T05:02:34.197Z,100.00
2022-09-25T05:05:01.162Z,100.00
2022-09-25T05:07:28.175Z,100.00
2022-09-25T05:09:54.915Z,100.00
2022-09-25T05:12:21.648Z,100.00
2022-09-25T05:14:48.401Z,100.00
2022-09-25T05:17:15.034Z,100.00
2022-09-25T05:19:41.694Z,100.00
2022-09-25T05:22:08.402Z,100.00
2022-09-25T05:24:35.138Z,100.00
2022-09-25T05:27:02.182Z,100.00
2022-09-25T05:29:29.035Z,100.00
2022-09-25T05:31:55.978Z,100.00
2022-09-25T05:34:22.933Z,100.00
2022-09-25T05:36:50.077Z,100.00
2022-09-25T05:39:16.912Z,100.00
2022-09-25T05:41:43.660Z,99.55
2022-09-25T05:44:10.875Z,99.31
2022-09-25T05:46:39.953Z,98.94
2022-09-25T05:49:06.939Z,98.70
2022-09-25T05:51:34.090Z,97.84
2022-09-25T05:54:00.949Z,96.72
2022-09-25T05:56:27.877Z,96.31
2022-09-25T05:58:58.100Z,94.48
2022-09-25T06:01:25.808Z,93.47
2022-09-25T06:03:52.605Z,91.32
2022-09-25T06:06:22.526Z,90.70
2022-09-25T06:08:54.379Z,90.05
2022-09-25T06:11:21.867Z,86.49
2022-09-25T06:13:54.167Z,82.46
2022-09-25T06:16:23.153Z,82.88
2022-09-25T06:18:50.549Z,81.81
2022-09-25T06:21:17.319Z,83.01
2022-09-25T06:23:48.348Z,82.78
2022-09-25T06:26:14.998Z,83.38
2022-09-25T06:28:41.635Z,84.33
2022-09-25T06:31:08.500Z,84.47
2022-09-25T06:33:35.374Z,82.74
2022-09-25T06:36:04.934Z,80.93
2022-09-25T06:38:34.658Z,79.70
2022-09-25T06:41:04.702Z,80.00
2022-09-25T06:43:31.715Z,79.62
2022-09-25T06:46:01.948Z,79.96
2022-09-25T06:48:30.320Z,80.38
2022-09-25T06:51:00.457Z,80.02
2022-09-25T06:53:27.981Z,78.49
2022-09-25T06:55:58.763Z,78.78
2022-09-25T06:58:27.058Z,79.66
2022-09-25T07:00:56.224Z,79.50
2022-09-25T07:03:42.872Z,78.43
2022-09-25T07:06:13.064Z,78.26
2022-09-25T07:08:41.748Z,77.63
2022-09-25T07:11:14.473Z,78.17
2022-09-25T07:13:42.406Z,77.72
2022-09-25T07:16:18.121Z,76.60
2022-09-25T07:18:46.769Z,75.17
2022-09-25T07:21:16.690Z,73.50
2022-09-25T07:23:47.255Z,72.97
2022-09-25T07:26:26.904Z,72.75
2022-09-25T07:28:55.224Z,70.84
2022-09-25T07:31:25.735Z,70.32
2022-09-25T07:33:53.585Z,69.56
2022-09-25T07:36:20.803Z,70.35
2022-09-25T07:38:51.946Z,70.15
2022-09-25T07:41:23.196Z,69.07
2022-09-25T07:44:27.455Z,67.47
2022-09-25T07:46:43.965Z,66.14
2022-09-25T07:49:11.351Z,65.91
2022-09-25T07:51:38.355Z,64.90
2022-09-25T07:54:05.208Z,63.27
2022-09-25T07:56:34.095Z,63.15
2022-09-25T07:59:01.130Z,62.31
2022-09-25T08:01:28.003Z,60.58
2022-09-25T08:03:54.885Z,61.03
2022-09-25T08:06:21.782Z,58.70
2022-09-25T08:08:48.369Z,57.50
2022-09-25T08:11:18.026Z,56.60
2022-09-25T08:13:45.618Z,56.08
2022-09-25T08:16:15.486Z,56.42
2022-09-25T08:18:45.976Z,55.78
2022-09-25T08:21:15.168Z,54.75
2022-09-25T08:23:47.812Z,54.79
2022-09-25T08:26:16.262Z,53.91
2022-09-25T08:28:43.874Z,53.74
2022-09-25T08:31:11.541Z,54.90
2022-09-25T08:33:40.125Z,53.17
2022-09-25T08:36:06.930Z,49.66
2022-09-25T08:38:34.227Z,50.82
2022-09-25T08:41:07.130Z,50.52
2022-09-25T08:43:40.574Z,49.45
2022-09-25T08:46:39.703Z,50.85
2022-09-25T08:49:10.945Z,52.46
2022-09-25T08:51:49.811Z,52.70
2022-09-25T08:54:23.834Z,52.30
2022-09-25T08:56:56.740Z,50.67
2022-09-25T08:59:27.052Z,48.84
2022-09-25T09:02:02.055Z,49.98
2022-09-25T09:04:32.871Z,50.47
2022-09-25T09:07:31.005Z,50.40
2022-09-25T09:10:14.696Z,48.57
2022-09-25T09:12:46.555Z,47.70
2022-09-25T09:15:36.061Z,45.90
2022-09-25T09:18:24.355Z,45.51
2022-09-25T09:21:08.873Z,46.61
2022-09-25T09:23:53.470Z,46.74
2022-09-25T09:26:33.655Z,44.52
2022-09-25T09:29:12.590Z,44.04
2022-09-25T09:31:39.235Z,43.81
2022-09-25T09:34:32.057Z,42.24
2022-09-25T09:37:23.242Z,40.99
2022-09-25T09:40:19.075Z,41.10
2022-09-25T09:42:55.351Z,40.36
2022-09-25T09:45:35.152Z,37.92
2022-09-25T09:48:32.042Z,38.64
2022-09-25T09:51:27.005Z,39.98
2022-09-25T09:54:16.736Z,39.09
2022-09-25T09:56:49.342Z,38.78
2022-09-25T09:59:25.551Z,39.21
2022-09-25T10:02:05.211Z,38.97
2022-09-25T10:04:40.268Z,36.96
2022-09-25T10:07:16.410Z,36.93
2022-09-25T10:09:43.546Z,37.44
2022-09-25T10:12:21.721Z,37.06
2022-09-25T10:14:48.541Z,36.94
2022-09-25T10:17:16.827Z,36.74
2022-09-25T10:19:57.754Z,36.83
2022-09-25T10:22:28.655Z,36.55
2022-09-25T10:25:04.885Z,35.89
2022-09-25T10:27:41.158Z,34.67
2022-09-25T10:30:10.954Z,34.34
2022-09-25T10:33:15.659Z,35.67
2022-09-25T10:35:48.586Z,34.80
2022-09-25T10:38:47.250Z,33.80
2022-09-25T10:41:20.047Z,33.77
2022-09-25T10:43:55.678Z,33.38
2022-09-25T10:46:59.605Z,33.00
2022-09-25T10:49:46.945Z,32.82
2022-09-25T10:52:19.338Z,32.12
2022-09-25T10:54:48.998Z,32.63
2022-09-25T10:57:37.807Z,33.44
2022-09-25T11:00:19.387Z,31.70
2022-09-25T11:02:56.815Z,31.91
2022-09-25T11:05:33.236Z,32.44
2022-09-25T11:08:04.097Z,31.67
2022-09-25T11:10:35.785Z,31.04
2022-09-25T11:13:17.498Z,30.96
2022-09-25T11:15:53.226Z,31.01
2022-09-25T11:18:40.344Z,30.21
2022-09-25T11:21:36.411Z,29.69
2022-09-25T11:24:16.726Z,30.22
2022-09-25T11:26:51.245Z,31.58
2022-09-25T11:29:37.797Z,30.36
2022-09-25T11:32:27.428Z,30.44
2022-09-25T11:35:14.624Z,30.12
2022-09-25T11:38:02.814Z,31.14
2022-09-25T11:41:03.019Z,31.56
2022-09-25T11:43:58.407Z,31.52
2022-09-25T11:47:01.010Z,30.55
2022-09-25T11:49:39.564Z,29.10
2022-09-25T11:52:24.453Z,29.86
2022-09-25T11:55:43.268Z,29.40
2022-09-25T11:58:26.128Z,29.02
2022-09-25T12:01:28.606Z,27.99
2022-09-25T12:04:13.237Z,28.81
2022-09-25T12:06:59.906Z,31.23
2022-09-25T12:09:45.007Z,31.07
2022-09-25T12:12:25.919Z,30.45
2022-09-25T12:15:14.544Z,28.69
2022-09-25T12:18:12.892Z,27.34
2022-09-25T12:20:51.155Z,27.76
2022-09-25T12:23:30.568Z,29.78
2022-09-25T12:26:12.350Z,29.90
2022-09-25T12:29:04.163Z,29.01
2022-09-25T12:31:52.226Z,30.41
2022-09-25T12:34:57.772Z,32.09
2022-09-25T12:37:50.118Z,34.07
2022-09-25T12:40:19.608Z,35.79
2022-09-25T12:42:55.328Z,36.68
2022-09-25T12:45:31.134Z,36.17
2022-09-25T12:48:20.922Z,34.24
2022-09-25T12:51:05.346Z,32.98
2022-09-25T12:53:55.785Z,31.07
2022-09-25T12:56:37.825Z,31.09
2022-09-25T12:59:24.150Z,30.16
2022-09-25T13:01:54.071Z,30.84
2022-09-25T13:04:34.720Z,30.74
2022-09-25T13:07:20.905Z,29.02
2022-09-25T13:09:48.618Z,29.95
2022-09-25T13:12:32.105Z,29.34
2022-09-25T13:15:10.987Z,28.21
2022-09-25T13:17:39.395Z,27.88
2022-09-25T13:20:28.274Z,28.54
2022-09-25T13:23:00.529Z,29.26
2022-09-25T13:25:28.855Z,28.74
2022-09-25T13:28:05.060Z,28.20
2022-09-25T13:30:32.000Z,28.24
2022-09-25T13:33:02.621Z,29.90
2022-09-25T13:35:32.500Z,31.68
2022-09-25T13:38:37.331Z,33.77
2022-09-25T13:41:30.737Z,34.83
2022-09-25T13:44:36.944Z,36.08
2022-09-25T13:47:25.097Z,37.93
2022-09-25T13:50:04.362Z,38.94
2022-09-25T13:53:17.582Z,38.76
2022-09-25T13:55:56.910Z,39.64
2022-09-25T13:58:28.826Z,40.39
2022-09-25T14:01:01.226Z,40.71
2022-09-25T14:03:31.688Z,41.42
2022-09-25T14:06:00.431Z,41.95
2022-09-25T14:08:31.875Z,42.01
2022-09-25T14:11:04.332Z,41.85
2022-09-25T14:13:33.179Z,42.43
2022-09-25T14:16:02.431Z,43.15
2022-09-25T14:18:42.499Z,44.36
2022-09-25T14:21:12.868Z,44.07
2022-09-25T14:23:52.871Z,43.61
2022-09-25T14:26:24.310Z,43.83
2022-09-25T14:28:53.229Z,44.61
2022-09-25T14:31:23.047Z,44.98
2022-09-25T14:34:04.646Z,45.92
2022-09-25T14:36:50.151Z,47.33
2022-09-25T14:39:44.377Z,48.83
2022-09-25T14:42:52.174Z,49.88
2022-09-25T14:45:50.917Z,50.24
2022-09-25T14:48:24.375Z,50.88
2022-09-25T14:51:00.898Z,51.09
2022-09-25T14:53:35.730Z,53.16
2022-09-25T14:56:09.252Z,53.38
2022-09-25T14:58:41.188Z,53.81
2022-09-25T15:01:29.999Z,54.40
2022-09-25T15:04:06.447Z,55.20
2022-09-25T15:06:38.875Z,55.26
2022-09-25T15:09:49.408Z,56.08
2022-09-25T15:12:34.105Z,55.76
2022-09-25T15:15:11.461Z,56.08
2022-09-25T15:18:01.936Z,55.85
2022-09-25T15:20:32.325Z,56.10
2022-09-25T15:23:05.309Z,56.11
2022-09-25T15:25:39.789Z,56.92
2022-09-25T15:28:26.258Z,57.84
2022-09-25T15:31:00.045Z,58.38
2022-09-25T15:33:30.056Z,58.85
2022-09-25T15:36:00.461Z,59.09
2022-09-25T15:38:32.732Z,59.35
2022-09-25T15:40:59.875Z,60.03
2022-09-25T15:43:29.633Z,60.69
2022-09-25T15:46:08.474Z,61.65
2022-09-25T15:48:41.138Z,62.60
2022-09-25T15:51:19.840Z,63.37
2022-09-25T15:53:56.452Z,64.09
2022-09-25T15:56:50.702Z,64.85
2022-09-25T15:59:23.198Z,65.64
2022-09-25T16:02:09.771Z,66.42
2022-09-25T16:04:40.060Z,67.02
2022-09-25T16:07:47.657Z,67.53
2022-09-25T16:10:18.003Z,67.78
2022-09-25T16:12:48.942Z,68.24
2022-09-25T16:15:29.863Z,68.42
2022-09-25T16:18:06.102Z,68.90
2022-09-25T16:20:38.788Z,69.54
2022-09-25T16:23:29.600Z,69.70
2022-09-25T16:25:59.654Z,70.34
2022-09-25T16:28:29.895Z,70.58
2022-09-25T16:31:08.569Z,70.91
2022-09-25T16:33:42.065Z,71.02
2022-09-25T16:36:19.233Z,71.46
2022-09-25T16:39:07.979Z,71.74
2022-09-25T16:41:38.324Z,72.26
2022-09-25T16:44:20.910Z,72.53
2022-09-25T16:46:59.789Z,72.98
2022-09-25T16:49:26.497Z,73.36
2022-09-25T16:51:54.917Z,73.73
2022-09-25T16:54:30.385Z,73.82
2022-09-25T16:56:58.946Z,73.92
2022-09-25T16:59:27.857Z,74.13
2022-09-25T17:02:01.518Z,74.39
2022-09-25T17:04:30.651Z,74.69
2022-09-25T17:06:58.176Z,74.94
2022-09-25T17:09:28.342Z,75.27
2022-09-25T17:12:10.868Z,75.30
2022-09-25T17:14:37.671Z,75.73
2022-09-25T17:17:04.385Z,76.04
2022-09-25T17:19:31.114Z,76.26
2022-09-25T17:21:57.977Z,76.63
2022-09-25T17:24:29.935Z,76.87
2022-09-25T17:27:13.315Z,76.90
2022-09-25T17:29:42.196Z,76.99
2022-09-25T17:32:14.950Z,77.22
2022-09-25T17:34:44.898Z,77.19
2022-09-25T17:37:11.578Z,77.02
2022-09-25T17:39:38.499Z,76.71
2022-09-25T17:42:05.377Z,76.57
2022-09-25T17:44:32.767Z,76.75
2022-09-25T17:47:00.516Z,76.86
2022-09-25T17:49:29.237Z,77.14
2022-09-25T17:51:56.115Z,77.35
2022-09-25T17:54:23.578Z,77.54
2022-09-25T17:56:50.722Z,77.88
2022-09-25T17:59:17.755Z,77.90
2022-09-25T18:01:44.689Z,78.27
2022-09-25T18:04:25.179Z,78.47
2022-09-25T18:06:52.344Z,78.78
2022-09-25T18:09:21.770Z,79.18
2022-09-25T18:11:48.768Z,79.30
2022-09-25T18:14:16.665Z,79.67
2022-09-25T18:16:45.082Z,79.83
2022-09-25T18:19:38.447Z,79.75
2022-09-25T18:22:18.847Z,79.91
2022-09-25T18:24:55.898Z,80.27
2022-09-25T18:27:33.841Z,80.71
2022-09-25T18:30:01.120Z,80.78
2022-09-25T18:32:29.109Z,80.99
2022-09-25T18:34:55.795Z,81.15
2022-09-25T18:37:22.574Z,81.10
2022-09-25T18:39:50.331Z,81.25
2022-09-25T18:42:17.431Z,81.36
2022-09-25T18:44:44.255Z,81.73
2022-09-25T18:47:11.354Z,81.94
2022-09-25T18:49:38.515Z,81.83
2022-09-25T18:52:06.291Z,81.87
2022-09-25T18:54:34.016Z,82.09
2022-09-25T18:57:00.734Z,81.99
2022-09-25T18:59:30.368Z,81.87
2022-09-25T19:01:57.178Z,82.18
2022-09-25T19:04:25.199Z,82.19
2022-09-25T19:06:55.491Z,82.40
2022-09-25T19:09:24.130Z,82.52
2022-09-25T19:11:51.336Z,82.42
2022-09-25T19:14:19.450Z,82.58
2022-09-25T19:16:47.097Z,82.49
2022-09-25T19:19:14.091Z,82.56
2022-09-25T19:21:44.309Z,82.64
2022-09-25T19:24:11.370Z,82.68
2022-09-25T19:26:38.270Z,82.47
2022-09-25T19:29:07.901Z,82.40
2022-09-25T19:31:34.902Z,82.48
2022-09-25T19:34:04.664Z,82.66
2022-09-25T19:36:34.352Z,82.49
2022-09-25T19:39:01.863Z,82.68
2022-09-25T19:41:31.323Z,83.10
2022-09-25T19:44:11.223Z,83.19
2022-09-25T19:46:41.067Z,83.55
2022-09-25T19:49:08.052Z,83.75
2022-09-25T19:51:37.166Z,84.00
2022-09-25T19:54:05.275Z,84.23
2022-09-25T19:56:31.999Z,84.03
2022-09-25T19:58:58.996Z,83.94
2022-09-25T20:01:29.748Z,84.16
2022-09-25T20:03:56.658Z,84.30
2022-09-25T20:06:25.735Z,84.47
2022-09-25T20:09:03.135Z,84.92
2022-09-25T20:11:31.281Z,85.40
2022-09-25T20:14:00.662Z,86.24
2022-09-25T20:16:28.945Z,87.72
2022-09-25T20:18:59.832Z,88.09
2022-09-25T20:21:29.891Z,88.56
2022-09-25T20:23:58.987Z,88.99
2022-09-25T20:26:26.925Z,89.10
2022-09-25T20:28:59.501Z,89.57
2022-09-25T20:31:28.749Z,89.54
2022-09-25T20:33:56.115Z,90.14
2022-09-25T20:36:23.620Z,90.46
2022-09-25T20:38:52.302Z,90.71
2022-09-25T20:41:20.459Z,91.15
2022-09-25T20:43:52.889Z,91.34
2022-09-25T20:46:20.880Z,91.58
2022-09-25T20:48:50.588Z,91.68
2022-09-25T20:51:27.015Z,92.05
2022-09-25T20:54:00.733Z,92.40
2022-09-25T20:56:29.439Z,92.42
2022-09-25T20:58:57.416Z,92.77
2022-09-25T21:01:27.424Z,92.94
2022-09-25T21:03:54.739Z,93.53
2022-09-25T21:06:24.495Z,94.31
2022-09-25T21:08:57.356Z,95.19
2022-09-25T21:11:26.117Z,95.46
2022-09-25T21:13:57.695Z,95.76
2022-09-25T21:16:29.779Z,96.00
2022-09-25T21:19:00.112Z,95.91
2022-09-25T21:21:28.441Z,96.27
2022-09-25T21:23:57.757Z,96.96
2022-09-25T21:26:27.458Z,97.01
2022-09-25T21:28:56.939Z,97.08
2022-09-25T21:31:39.509Z,97.12
2022-09-25T21:34:12.125Z,97.25
2022-09-25T21:36:38.931Z,97.81
2022-09-25T21:39:06.875Z,98.54
2022-09-25T21:41:34.457Z,98.64
2022-09-25T21:44:05.619Z,98.51
2022-09-25T21:46:34.858Z,98.48
2022-09-25T21:49:04.755Z,98.22
2022-09-25T21:51:42.799Z,98.14
2022-09-25T21:54:11.710Z,98.26
2022-09-25T21:56:38.708Z,98.40
2022-09-25T21:59:08.862Z,98.23
2022-09-25T22:01:39.285Z,98.14
2022-09-25T22:04:08.114Z,98.13
2022-09-25T22:06:40.788Z,98.23
2022-09-25T22:09:21.999Z,98.45
2022-09-25T22:11:50.558Z,98.70
2022-09-25T22:14:19.372Z,99.06
2022-09-25T22:16:48.958Z,99.28
2022-09-25T22:19:25.980Z,99.15
2022-09-25T22:22:02.655Z,98.98
2022-09-25T22:24:29.356Z,99.01
2022-09-25T22:26:56.540Z,99.04
2022-09-25T22:29:24.298Z,99.17
2022-09-25T22:31:52.416Z,99.56
2022-09-25T22:34:22.252Z,99.77
2022-09-25T22:36:56.197Z,99.99
2022-09-25T22:39:27.113Z,100.00
2022-09-25T22:41:54.968Z,100.00
2022-09-25T22:44:22.387Z,100.00
2022-09-25T22:46:49.306Z,100.00
2022-09-25T22:49:16.812Z,100.00
2022-09-25T22:51:43.856Z,100.00
2022-09-25T22:54:14.034Z,100.00
2022-09-25T22:56:41.744Z,100.00
2022-09-25T22:59:14.309Z,100.00
2022-09-25T23:01:46.160Z,100.00
2022-09-25T23:04:16.481Z,100.00
2022-09-25T23:06:43.535Z,100.00
2022-09-25T23:09:15.121Z,100.00
2022-09-25T23:11:42.584Z,100.00
2022-09-25T23:14:18.979Z,100.00
2022-09-25T23:16:48.764Z,100.00
2022-09-25T23:19:20.026Z,100.00
2022-09-25T23:21:47.797Z,100.00
2022-09-25T23:24:16.804Z,100.00
2022-09-25T23:26:45.299Z,100.00
2022-09-25T23:29:14.606Z,100.00
2022-09-25T23:31:42.395Z,100.00
2022-09-25T23:34:10.260Z,100.00
2022-09-25T23:36:38.006Z,100.00
2022-09-25T23:39:07.869Z,100.00
2022-09-25T23:41:37.375Z,100.00
2022-09-25T23:44:07.093Z,100.00
2022-09-25T23:46:37.512Z,100.00
2022-09-25T23:49:05.442Z,100.00
2022-09-25T23:51:32.349Z,100.00
2022-09-25T23:54:01.134Z,100.00
2022-09-25T23:56:31.173Z,100.00
2022-09-25T23:59:01.039Z,100.00
